Ana Sayfa
METAR-TAF:

METAR-TAF

Havaalanları :

Sukhothai, Tayland

Enlem: 17-14-16N, Boylam: 099-49-05E, yükseklik: 55 m

Güncel hava durumu gözlemi

Rapor saat 10:00 UTC de 28 dakika önce yapıldı.
Rüzgar güneydoğudan 5 kt
Sıcaklık 34°C
Nem 34%
Basınç 1006 hPa
Görüş mesafesi: 6000 m

METAR: VTPO 281000Z 13005KT 6000 NSC 34/16 Q1006 NOSIG

Saat: 17:28 (10:28 UTC)

Tahmin

Rapor saat 05:00 UTC de 5 saat ve 28 dakika önce yapıldı.
Ayın 28'si saat 06 UTC'den ayın 29'si saat 06 UTC'ye kadar geçerli Tahmin
Rüzgar güney/güneydoğudan 5 kt
Görüş mesafesi: 5000 m
2500 ft yükseklikte az bulutlu
Toz Pusu
Dönüşüyor
ayın 28'si saat 21 UTC'den ayın 28'si saat 23 UTC'ye kadar
Görüş mesafesi: 2000 m
Pus

TAF: VTPO 280500Z 2806/2906 16005KT 5000 HZ FEW025 BECMG 2821/2823 2000 BR

4.000'den fazla havaalanı için hava durumu gözlemleri ve tahminleri (METAR ve TAF raporları).

Kullanılabilir istasyonlar harita üzerinde sarı ve kırmızı noktalarla gösterilir.

İstasyonun adını görmek için fareyi noktanın üzerinde gezdirin.

Sonrasında hava gözlem ve tahminlerini görmek için tıklayın.

Haritayı değiştirmek için: yaklaştırmak için siyah artı işaretli yeşil düğmeye ve uzaklaştırmak için de eksi işaretli düğmeye hızla tıklayın; bitişik haritalar için yeşil okları kullanın.


METAR-TAF: